sensor_id;sensor_type;location;lat;lon;timestamp;P1;durP1;ratioP1;P2;durP2;ratioP2
63112;SDS011;49206;48.020;21.378;2023-11-21T00:00:26;145.15;;;41.53;;
63112;SDS011;49206;48.020;21.378;2023-11-21T00:01:29;179.52;;;40.78;;
63112;SDS011;49206;48.020;21.378;2023-11-21T00:02:31;169.63;;;42.67;;
63112;SDS011;49206;48.020;21.378;2023-11-21T00:03:34;129.15;;;39.78;;
63112;SDS011;49206;48.020;21.378;2023-11-21T00:04:38;138.50;;;39.58;;
63112;SDS011;49206;48.020;21.378;2023-11-21T00:05:41;149.07;;;42.83;;
63112;SDS011;49206;48.020;21.378;2023-11-21T00:06:43;160.48;;;39.63;;
63112;SDS011;49206;48.020;21.378;2023-11-21T00:07:49;96.97;;;38.35;;
63112;SDS011;49206;48.020;21.378;2023-11-21T00:08:52;139.68;;;39.20;;
63112;SDS011;49206;48.020;21.378;2023-11-21T00:09:55;158.55;;;38.20;;
63112;SDS011;49206;48.020;21.378;2023-11-21T00:10:58;170.30;;;40.75;;
63112;SDS011;49206;48.020;21.378;2023-11-21T00:13:05;124.32;;;34.22;;
63112;SDS011;49206;48.020;21.378;2023-11-21T00:14:08;206.98;;;40.97;;
63112;SDS011;49206;48.020;21.378;2023-11-21T00:15:12;134.35;;;38.50;;
63112;SDS011;49206;48.020;21.378;2023-11-21T00:16:14;156.40;;;36.35;;
63112;SDS011;49206;48.020;21.378;2023-11-21T00:17:17;83.70;;;36.17;;
63112;SDS011;49206;48.020;21.378;2023-11-21T00:18:20;96.32;;;38.60;;
63112;SDS011;49206;48.020;21.378;2023-11-21T00:19:23;124.88;;;36.72;;
63112;SDS011;49206;48.020;21.378;2023-11-21T00:20:25;111.25;;;38.80;;
63112;SDS011;49206;48.020;21.378;2023-11-21T00:21:28;160.50;;;36.72;;
63112;SDS011;49206;48.020;21.378;2023-11-21T00:22:30;168.00;;;40.65;;
63112;SDS011;49206;48.020;21.378;2023-11-21T00:23:34;137.07;;;38.63;;
63112;SDS011;49206;48.020;21.378;2023-11-21T00:24:37;101.60;;;35.53;;
63112;SDS011;49206;48.020;21.378;2023-11-21T00:25:40;83.00;;;36.35;;
63112;SDS011;49206;48.020;21.378;2023-11-21T00:26:43;168.35;;;41.28;;
63112;SDS011;49206;48.020;21.378;2023-11-21T00:27:46;133.43;;;38.35;;
63112;SDS011;49206;48.020;21.378;2023-11-21T00:28:50;137.88;;;38.13;;
63112;SDS011;49206;48.020;21.378;2023-11-21T00:29:53;98.55;;;37.20;;
63112;SDS011;49206;48.020;21.378;2023-11-21T00:30:55;103.70;;;37.05;;
63112;SDS011;49206;48.020;21.378;2023-11-21T00:31:58;92.13;;;38.90;;
63112;SDS011;49206;48.020;21.378;2023-11-21T00:33:00;175.95;;;39.83;;
63112;SDS011;49206;48.020;21.378;2023-11-21T00:34:03;155.82;;;38.83;;
63112;SDS011;49206;48.020;21.378;2023-11-21T00:35:08;155.55;;;36.10;;
63112;SDS011;49206;48.020;21.378;2023-11-21T00:36:11;84.85;;;33.85;;
63112;SDS011;49206;48.020;21.378;2023-11-21T00:37:14;96.22;;;33.97;;
63112;SDS011;49206;48.020;21.378;2023-11-21T00:38:17;90.07;;;35.65;;
63112;SDS011;49206;48.020;21.378;2023-11-21T00:39:22;118.13;;;37.22;;
63112;SDS011;49206;48.020;21.378;2023-11-21T00:40:24;129.10;;;36.13;;
63112;SDS011;49206;48.020;21.378;2023-11-21T00:41:27;114.30;;;35.28;;
63112;SDS011;49206;48.020;21.378;2023-11-21T00:42:30;103.97;;;38.75;;
63112;SDS011;49206;48.020;21.378;2023-11-21T00:43:37;122.93;;;35.97;;
63112;SDS011;49206;48.020;21.378;2023-11-21T00:44:39;119.70;;;35.80;;
63112;SDS011;49206;48.020;21.378;2023-11-21T00:45:43;92.32;;;34.72;;
63112;SDS011;49206;48.020;21.378;2023-11-21T00:46:46;97.57;;;34.22;;
63112;SDS011;49206;48.020;21.378;2023-11-21T00:47:49;130.38;;;35.05;;
63112;SDS011;49206;48.020;21.378;2023-11-21T00:48:52;121.15;;;33.78;;
63112;SDS011;49206;48.020;21.378;2023-11-21T00:49:57;118.68;;;35.47;;
63112;SDS011;49206;48.020;21.378;2023-11-21T00:50:59;101.65;;;32.40;;
63112;SDS011;49206;48.020;21.378;2023-11-21T00:52:02;113.53;;;31.92;;
63112;SDS011;49206;48.020;21.378;2023-11-21T00:53:05;120.18;;;33.72;;
63112;SDS011;49206;48.020;21.378;2023-11-21T00:54:09;64.32;;;30.55;;
63112;SDS011;49206;48.020;21.378;2023-11-21T00:55:13;119.55;;;35.80;;
63112;SDS011;49206;48.020;21.378;2023-11-21T00:56:16;122.10;;;36.58;;
63112;SDS011;49206;48.020;21.378;2023-11-21T00:57:19;73.78;;;30.80;;
63112;SDS011;49206;48.020;21.378;2023-11-21T00:58:22;114.15;;;34.63;;
63112;SDS011;49206;48.020;21.378;2023-11-21T00:59:28;74.18;;;32.25;;
63112;SDS011;49206;48.020;21.378;2023-11-21T01:00:30;101.90;;;33.20;;
63112;SDS011;49206;48.020;21.378;2023-11-21T01:01:33;62.60;;;32.47;;
63112;SDS011;49206;48.020;21.378;2023-11-21T01:02:36;141.43;;;37.13;;
63112;SDS011;49206;48.020;21.378;2023-11-21T01:03:40;82.63;;;31.90;;
63112;SDS011;49206;48.020;21.378;2023-11-21T01:04:43;68.55;;;34.58;;
63112;SDS011;49206;48.020;21.378;2023-11-21T01:05:46;146.10;;;33.72;;
63112;SDS011;49206;48.020;21.378;2023-11-21T01:06:48;130.18;;;35.97;;
63112;SDS011;49206;48.020;21.378;2023-11-21T01:07:51;103.65;;;33.53;;
63112;SDS011;49206;48.020;21.378;2023-11-21T01:08:54;75.57;;;32.63;;
63112;SDS011;49206;48.020;21.378;2023-11-21T01:09:57;131.18;;;35.75;;
63112;SDS011;49206;48.020;21.378;2023-11-21T01:10:59;146.70;;;36.35;;
63112;SDS011;49206;48.020;21.378;2023-11-21T01:12:02;93.60;;;30.73;;
63112;SDS011;49206;48.020;21.378;2023-11-21T01:13:05;123.47;;;33.65;;
63112;SDS011;49206;48.020;21.378;2023-11-21T01:14:07;141.50;;;34.33;;
63112;SDS011;49206;48.020;21.378;2023-11-21T01:15:11;112.47;;;33.60;;
63112;SDS011;49206;48.020;21.378;2023-11-21T01:16:14;120.75;;;33.00;;
63112;SDS011;49206;48.020;21.378;2023-11-21T01:17:17;88.00;;;31.98;;
63112;SDS011;49206;48.020;21.378;2023-11-21T01:18:20;112.00;;;35.53;;
63112;SDS011;49206;48.020;21.378;2023-11-21T01:19:23;126.88;;;33.25;;
63112;SDS011;49206;48.020;21.378;2023-11-21T01:20:26;138.20;;;33.92;;
63112;SDS011;49206;48.020;21.378;2023-11-21T01:21:29;120.80;;;32.45;;
63112;SDS011;49206;48.020;21.378;2023-11-21T01:22:32;129.43;;;33.75;;
63112;SDS011;49206;48.020;21.378;2023-11-21T01:23:35;68.20;;;32.83;;
63112;SDS011;49206;48.020;21.378;2023-11-21T01:24:38;136.65;;;33.90;;
63112;SDS011;49206;48.020;21.378;2023-11-21T01:25:40;82.88;;;33.95;;
63112;SDS011;49206;48.020;21.378;2023-11-21T01:26:44;149.70;;;36.30;;
63112;SDS011;49206;48.020;21.378;2023-11-21T01:27:48;112.45;;;33.28;;
63112;SDS011;49206;48.020;21.378;2023-11-21T01:28:51;74.10;;;33.83;;
63112;SDS011;49206;48.020;21.378;2023-11-21T01:29:54;81.82;;;34.15;;
63112;SDS011;49206;48.020;21.378;2023-11-21T01:30:57;75.50;;;32.90;;
63112;SDS011;49206;48.020;21.378;2023-11-21T01:32:00;93.53;;;34.80;;
63112;SDS011;49206;48.020;21.378;2023-11-21T01:34:08;115.00;;;32.30;;
63112;SDS011;49206;48.020;21.378;2023-11-21T01:35:10;132.48;;;35.38;;
63112;SDS011;49206;48.020;21.378;2023-11-21T01:36:13;79.00;;;32.97;;
63112;SDS011;49206;48.020;21.378;2023-11-21T01:37:16;128.30;;;36.63;;
63112;SDS011;49206;48.020;21.378;2023-11-21T01:38:19;79.00;;;33.70;;
63112;SDS011;49206;48.020;21.378;2023-11-21T01:39:22;120.88;;;35.80;;
63112;SDS011;49206;48.020;21.378;2023-11-21T01:40:26;104.97;;;33.85;;
63112;SDS011;49206;48.020;21.378;2023-11-21T01:41:29;114.47;;;32.35;;
63112;SDS011;49206;48.020;21.378;2023-11-21T01:42:33;117.20;;;35.58;;
63112;SDS011;49206;48.020;21.378;2023-11-21T01:43:36;107.68;;;32.17;;
63112;SDS011;49206;48.020;21.378;2023-11-21T01:44:39;94.80;;;32.70;;
63112;SDS011;49206;48.020;21.378;2023-11-21T01:45:42;107.40;;;32.85;;
63112;SDS011;49206;48.020;21.378;2023-11-21T01:46:47;126.63;;;35.35;;
63112;SDS011;49206;48.020;21.378;2023-11-21T01:47:50;116.85;;;33.25;;
63112;SDS011;49206;48.020;21.378;2023-11-21T01:48:56;88.70;;;33.30;;
63112;SDS011;49206;48.020;21.378;2023-11-21T01:49:58;68.93;;;31.83;;
63112;SDS011;49206;48.020;21.378;2023-11-21T01:51:05;63.33;;;30.48;;
63112;SDS011;49206;48.020;21.378;2023-11-21T01:52:11;69.85;;;33.70;;
63112;SDS011;49206;48.020;21.378;2023-11-21T01:53:14;114.07;;;35.72;;
63112;SDS011;49206;48.020;21.378;2023-11-21T01:54:17;95.40;;;33.08;;
63112;SDS011;49206;48.020;21.378;2023-11-21T01:55:20;75.00;;;32.88;;
63112;SDS011;49206;48.020;21.378;2023-11-21T01:56:28;107.43;;;33.00;;
63112;SDS011;49206;48.020;21.378;2023-11-21T01:57:31;92.20;;;34.45;;
63112;SDS011;49206;48.020;21.378;2023-11-21T01:58:34;69.88;;;31.33;;
63112;SDS011;49206;48.020;21.378;2023-11-21T01:59:39;72.20;;;31.25;;
63112;SDS011;49206;48.020;21.378;2023-11-21T02:00:44;114.55;;;33.17;;
63112;SDS011;49206;48.020;21.378;2023-11-21T02:01:47;106.63;;;34.03;;
63112;SDS011;49206;48.020;21.378;2023-11-21T02:02:50;112.07;;;33.60;;
63112;SDS011;49206;48.020;21.378;2023-11-21T02:03:53;89.18;;;31.63;;
63112;SDS011;49206;48.020;21.378;2023-11-21T02:04:56;71.22;;;31.52;;
63112;SDS011;49206;48.020;21.378;2023-11-21T02:05:59;106.95;;;32.28;;
63112;SDS011;49206;48.020;21.378;2023-11-21T02:07:01;113.05;;;33.85;;
63112;SDS011;49206;48.020;21.378;2023-11-21T02:08:08;98.70;;;31.88;;
63112;SDS011;49206;48.020;21.378;2023-11-21T02:09:11;92.22;;;31.50;;
63112;SDS011;49206;48.020;21.378;2023-11-21T02:10:18;102.80;;;30.58;;
63112;SDS011;49206;48.020;21.378;2023-11-21T02:11:26;105.38;;;35.10;;
63112;SDS011;49206;48.020;21.378;2023-11-21T02:12:29;62.03;;;30.80;;
63112;SDS011;49206;48.020;21.378;2023-11-21T02:13:32;102.50;;;33.30;;
63112;SDS011;49206;48.020;21.378;2023-11-21T02:14:35;84.85;;;32.28;;
63112;SDS011;49206;48.020;21.378;2023-11-21T02:15:38;69.20;;;32.90;;
63112;SDS011;49206;48.020;21.378;2023-11-21T02:16:41;104.47;;;35.15;;
63112;SDS011;49206;48.020;21.378;2023-11-21T02:17:50;88.63;;;33.45;;
63112;SDS011;49206;48.020;21.378;2023-11-21T02:18:57;71.07;;;32.40;;
63112;SDS011;49206;48.020;21.378;2023-11-21T02:20:00;79.28;;;34.13;;
63112;SDS011;49206;48.020;21.378;2023-11-21T02:21:03;70.28;;;33.85;;
63112;SDS011;49206;48.020;21.378;2023-11-21T02:22:07;71.32;;;33.50;;
63112;SDS011;49206;48.020;21.378;2023-11-21T02:23:10;94.43;;;36.42;;
63112;SDS011;49206;48.020;21.378;2023-11-21T02:24:12;132.10;;;36.80;;
63112;SDS011;49206;48.020;21.378;2023-11-21T02:25:15;98.53;;;35.75;;
63112;SDS011;49206;48.020;21.378;2023-11-21T02:26:17;83.00;;;34.83;;
63112;SDS011;49206;48.020;21.378;2023-11-21T02:27:20;79.22;;;34.22;;
63112;SDS011;49206;48.020;21.378;2023-11-21T02:28:25;87.45;;;34.90;;
63112;SDS011;49206;48.020;21.378;2023-11-21T02:29:28;87.15;;;37.17;;
63112;SDS011;49206;48.020;21.378;2023-11-21T02:30:31;104.00;;;35.47;;
63112;SDS011;49206;48.020;21.378;2023-11-21T02:31:34;81.70;;;33.63;;
63112;SDS011;49206;48.020;21.378;2023-11-21T02:32:38;118.00;;;33.83;;
63112;SDS011;49206;48.020;21.378;2023-11-21T02:33:50;66.47;;;31.85;;
63112;SDS011;49206;48.020;21.378;2023-11-21T02:34:53;94.75;;;33.47;;
63112;SDS011;49206;48.020;21.378;2023-11-21T02:36:03;71.25;;;32.45;;
63112;SDS011;49206;48.020;21.378;2023-11-21T02:37:06;86.03;;;32.63;;
63112;SDS011;49206;48.020;21.378;2023-11-21T02:38:08;99.45;;;34.22;;
63112;SDS011;49206;48.020;21.378;2023-11-21T02:39:11;65.28;;;32.03;;
63112;SDS011;49206;48.020;21.378;2023-11-21T02:40:14;68.93;;;33.80;;
63112;SDS011;49206;48.020;21.378;2023-11-21T02:41:20;100.75;;;35.10;;
63112;SDS011;49206;48.020;21.378;2023-11-21T02:42:22;75.20;;;33.50;;
63112;SDS011;49206;48.020;21.378;2023-11-21T02:43:25;100.55;;;33.80;;
63112;SDS011;49206;48.020;21.378;2023-11-21T02:44:27;76.85;;;35.17;;
63112;SDS011;49206;48.020;21.378;2023-11-21T02:45:30;78.80;;;36.28;;
63112;SDS011;49206;48.020;21.378;2023-11-21T02:46:33;138.10;;;35.97;;
63112;SDS011;49206;48.020;21.378;2023-11-21T02:49:01;104.15;;;35.03;;
63112;SDS011;49206;48.020;21.378;2023-11-21T02:50:08;81.43;;;34.53;;
63112;SDS011;49206;48.020;21.378;2023-11-21T02:51:11;86.85;;;33.88;;
63112;SDS011;49206;48.020;21.378;2023-11-21T02:52:14;85.43;;;35.03;;
63112;SDS011;49206;48.020;21.378;2023-11-21T02:53:17;86.43;;;36.22;;
63112;SDS011;49206;48.020;21.378;2023-11-21T02:54:20;112.35;;;35.28;;
63112;SDS011;49206;48.020;21.378;2023-11-21T02:55:24;108.07;;;33.03;;
63112;SDS011;49206;48.020;21.378;2023-11-21T02:56:28;107.55;;;33.95;;
63112;SDS011;49206;48.020;21.378;2023-11-21T02:57:31;90.68;;;31.92;;
63112;SDS011;49206;48.020;21.378;2023-11-21T02:58:34;78.68;;;33.03;;
63112;SDS011;49206;48.020;21.378;2023-11-21T02:59:36;71.30;;;31.92;;
63112;SDS011;49206;48.020;21.378;2023-11-21T03:00:39;84.10;;;33.80;;
63112;SDS011;49206;48.020;21.378;2023-11-21T03:01:44;89.78;;;37.53;;
63112;SDS011;49206;48.020;21.378;2023-11-21T03:02:46;120.57;;;39.25;;
63112;SDS011;49206;48.020;21.378;2023-11-21T03:03:50;87.97;;;39.00;;
63112;SDS011;49206;48.020;21.378;2023-11-21T03:04:56;115.88;;;38.22;;
63112;SDS011;49206;48.020;21.378;2023-11-21T03:05:58;114.95;;;37.03;;
63112;SDS011;49206;48.020;21.378;2023-11-21T03:07:01;104.28;;;36.42;;
63112;SDS011;49206;48.020;21.378;2023-11-21T03:08:04;78.93;;;37.35;;
63112;SDS011;49206;48.020;21.378;2023-11-21T03:09:07;76.75;;;35.78;;
63112;SDS011;49206;48.020;21.378;2023-11-21T03:10:10;89.75;;;35.65;;
63112;SDS011;49206;48.020;21.378;2023-11-21T03:11:13;82.97;;;35.20;;
63112;SDS011;49206;48.020;21.378;2023-11-21T03:12:16;96.15;;;35.80;;
63112;SDS011;49206;48.020;21.378;2023-11-21T03:13:19;100.13;;;36.83;;
63112;SDS011;49206;48.020;21.378;2023-11-21T03:14:21;96.70;;;35.00;;
63112;SDS011;49206;48.020;21.378;2023-11-21T03:15:24;132.32;;;37.67;;
63112;SDS011;49206;48.020;21.378;2023-11-21T03:16:26;120.32;;;36.55;;
63112;SDS011;49206;48.020;21.378;2023-11-21T03:17:29;171.98;;;39.85;;
63112;SDS011;49206;48.020;21.378;2023-11-21T03:18:32;123.97;;;36.60;;
63112;SDS011;49206;48.020;21.378;2023-11-21T03:19:35;185.35;;;38.28;;
63112;SDS011;49206;48.020;21.378;2023-11-21T03:20:37;104.07;;;35.53;;
63112;SDS011;49206;48.020;21.378;2023-11-21T03:21:42;98.35;;;34.17;;
63112;SDS011;49206;48.020;21.378;2023-11-21T03:22:45;68.80;;;33.05;;
63112;SDS011;49206;48.020;21.378;2023-11-21T03:23:47;74.38;;;34.85;;
63112;SDS011;49206;48.020;21.378;2023-11-21T03:24:50;123.53;;;35.65;;
63112;SDS011;49206;48.020;21.378;2023-11-21T03:25:53;76.35;;;35.97;;
63112;SDS011;49206;48.020;21.378;2023-11-21T03:26:55;76.05;;;34.13;;
63112;SDS011;49206;48.020;21.378;2023-11-21T03:27:58;107.53;;;35.70;;
63112;SDS011;49206;48.020;21.378;2023-11-21T03:29:04;92.10;;;37.20;;
63112;SDS011;49206;48.020;21.378;2023-11-21T03:30:07;79.85;;;35.17;;
63112;SDS011;49206;48.020;21.378;2023-11-21T03:31:12;83.63;;;35.95;;
63112;SDS011;49206;48.020;21.378;2023-11-21T03:32:15;89.10;;;37.10;;
63112;SDS011;49206;48.020;21.378;2023-11-21T03:33:18;127.45;;;39.80;;
63112;SDS011;49206;48.020;21.378;2023-11-21T03:34:24;155.38;;;40.38;;
63112;SDS011;49206;48.020;21.378;2023-11-21T03:35:29;98.45;;;38.15;;
63112;SDS011;49206;48.020;21.378;2023-11-21T03:36:32;133.02;;;38.97;;
63112;SDS011;49206;48.020;21.378;2023-11-21T03:37:34;91.97;;;38.33;;
63112;SDS011;49206;48.020;21.378;2023-11-21T03:38:37;133.55;;;40.08;;
63112;SDS011;49206;48.020;21.378;2023-11-21T03:39:40;113.47;;;40.45;;
63112;SDS011;49206;48.020;21.378;2023-11-21T03:40:44;105.78;;;36.50;;
63112;SDS011;49206;48.020;21.378;2023-11-21T03:41:46;125.60;;;41.53;;
63112;SDS011;49206;48.020;21.378;2023-11-21T03:42:50;93.35;;;37.67;;
63112;SDS011;49206;48.020;21.378;2023-11-21T03:43:55;91.78;;;39.42;;
63112;SDS011;49206;48.020;21.378;2023-11-21T03:44:57;157.18;;;44.35;;
63112;SDS011;49206;48.020;21.378;2023-11-21T03:46:00;132.30;;;41.33;;
63112;SDS011;49206;48.020;21.378;2023-11-21T03:47:03;126.55;;;43.60;;
63112;SDS011;49206;48.020;21.378;2023-11-21T03:48:06;129.18;;;41.55;;
63112;SDS011;49206;48.020;21.378;2023-11-21T03:49:12;109.43;;;37.85;;
63112;SDS011;49206;48.020;21.378;2023-11-21T03:50:16;155.00;;;42.40;;
63112;SDS011;49206;48.020;21.378;2023-11-21T03:51:19;152.77;;;41.72;;
63112;SDS011;49206;48.020;21.378;2023-11-21T03:52:21;132.40;;;41.30;;
63112;SDS011;49206;48.020;21.378;2023-11-21T03:53:26;89.70;;;40.05;;
63112;SDS011;49206;48.020;21.378;2023-11-21T03:54:29;90.78;;;37.97;;
63112;SDS011;49206;48.020;21.378;2023-11-21T03:55:32;176.43;;;41.95;;
63112;SDS011;49206;48.020;21.378;2023-11-21T03:56:34;117.50;;;39.28;;
63112;SDS011;49206;48.020;21.378;2023-11-21T03:57:37;86.88;;;39.42;;
63112;SDS011;49206;48.020;21.378;2023-11-21T03:58:40;92.45;;;39.13;;
63112;SDS011;49206;48.020;21.378;2023-11-21T03:59:42;194.10;;;42.72;;
63112;SDS011;49206;48.020;21.378;2023-11-21T04:00:46;93.43;;;37.75;;
63112;SDS011;49206;48.020;21.378;2023-11-21T04:01:52;176.27;;;43.45;;
63112;SDS011;49206;48.020;21.378;2023-11-21T04:02:55;136.25;;;40.90;;
63112;SDS011;49206;48.020;21.378;2023-11-21T04:03:58;99.82;;;39.20;;
63112;SDS011;49206;48.020;21.378;2023-11-21T04:05:00;155.65;;;39.40;;
63112;SDS011;49206;48.020;21.378;2023-11-21T04:06:03;107.25;;;38.50;;
63112;SDS011;49206;48.020;21.378;2023-11-21T04:07:08;121.13;;;36.78;;
63112;SDS011;49206;48.020;21.378;2023-11-21T04:08:10;89.70;;;34.28;;
63112;SDS011;49206;48.020;21.378;2023-11-21T04:09:13;88.43;;;34.42;;
63112;SDS011;49206;48.020;21.378;2023-11-21T04:10:16;75.75;;;32.63;;
63112;SDS011;49206;48.020;21.378;2023-11-21T04:11:19;97.43;;;35.63;;
63112;SDS011;49206;48.020;21.378;2023-11-21T04:12:21;106.70;;;37.17;;
63112;SDS011;49206;48.020;21.378;2023-11-21T04:13:24;90.40;;;33.67;;
63112;SDS011;49206;48.020;21.378;2023-11-21T04:14:27;84.30;;;33.03;;
63112;SDS011;49206;48.020;21.378;2023-11-21T04:15:29;88.00;;;33.30;;
63112;SDS011;49206;48.020;21.378;2023-11-21T04:16:32;70.93;;;33.20;;
63112;SDS011;49206;48.020;21.378;2023-11-21T04:17:35;73.15;;;31.90;;
63112;SDS011;49206;48.020;21.378;2023-11-21T04:18:38;114.30;;;34.80;;
63112;SDS011;49206;48.020;21.378;2023-11-21T04:19:41;74.55;;;32.70;;
63112;SDS011;49206;48.020;21.378;2023-11-21T04:20:43;97.88;;;35.08;;
63112;SDS011;49206;48.020;21.378;2023-11-21T04:21:46;104.95;;;36.47;;
63112;SDS011;49206;48.020;21.378;2023-11-21T04:22:49;83.28;;;34.92;;
63112;SDS011;49206;48.020;21.378;2023-11-21T04:23:51;94.57;;;36.45;;
63112;SDS011;49206;48.020;21.378;2023-11-21T04:24:54;119.93;;;39.42;;
63112;SDS011;49206;48.020;21.378;2023-11-21T04:25:57;84.78;;;37.42;;
63112;SDS011;49206;48.020;21.378;2023-11-21T04:27:01;89.05;;;35.63;;
63112;SDS011;49206;48.020;21.378;2023-11-21T04:28:05;86.95;;;33.83;;
63112;SDS011;49206;48.020;21.378;2023-11-21T04:29:07;77.38;;;35.58;;
63112;SDS011;49206;48.020;21.378;2023-11-21T04:30:10;87.80;;;33.50;;
63112;SDS011;49206;48.020;21.378;2023-11-21T04:31:16;97.80;;;34.03;;
63112;SDS011;49206;48.020;21.378;2023-11-21T04:32:19;77.63;;;31.88;;
63112;SDS011;49206;48.020;21.378;2023-11-21T04:33:21;78.15;;;31.83;;
63112;SDS011;49206;48.020;21.378;2023-11-21T04:34:24;82.10;;;31.42;;
63112;SDS011;49206;48.020;21.378;2023-11-21T04:35:26;99.43;;;36.15;;
63112;SDS011;49206;48.020;21.378;2023-11-21T04:36:29;83.85;;;34.28;;
63112;SDS011;49206;48.020;21.378;2023-11-21T04:37:32;71.22;;;33.90;;
63112;SDS011;49206;48.020;21.378;2023-11-21T04:38:35;71.97;;;32.10;;
63112;SDS011;49206;48.020;21.378;2023-11-21T04:39:37;86.60;;;34.45;;
63112;SDS011;49206;48.020;21.378;2023-11-21T04:40:40;106.90;;;33.15;;
63112;SDS011;49206;48.020;21.378;2023-11-21T04:41:42;80.80;;;32.53;;
63112;SDS011;49206;48.020;21.378;2023-11-21T04:42:45;101.05;;;32.95;;
63112;SDS011;49206;48.020;21.378;2023-11-21T04:43:48;86.78;;;32.38;;
63112;SDS011;49206;48.020;21.378;2023-11-21T04:44:51;81.65;;;30.58;;
63112;SDS011;49206;48.020;21.378;2023-11-21T04:45:55;75.38;;;31.00;;
63112;SDS011;49206;48.020;21.378;2023-11-21T04:46:57;73.28;;;31.38;;
63112;SDS011;49206;48.020;21.378;2023-11-21T04:48:00;67.07;;;30.00;;
63112;SDS011;49206;48.020;21.378;2023-11-21T04:49:02;78.05;;;30.33;;
63112;SDS011;49206;48.020;21.378;2023-11-21T04:50:05;92.38;;;31.92;;
63112;SDS011;49206;48.020;21.378;2023-11-21T04:51:08;64.07;;;32.28;;
63112;SDS011;49206;48.020;21.378;2023-11-21T04:52:11;88.60;;;31.23;;
63112;SDS011;49206;48.020;21.378;2023-11-21T04:53:14;65.82;;;29.67;;
63112;SDS011;49206;48.020;21.378;2023-11-21T04:54:17;71.13;;;29.38;;
63112;SDS011;49206;48.020;21.378;2023-11-21T04:55:19;61.70;;;29.25;;
63112;SDS011;49206;48.020;21.378;2023-11-21T04:56:22;72.72;;;32.00;;
63112;SDS011;49206;48.020;21.378;2023-11-21T04:57:25;78.60;;;32.38;;
63112;SDS011;49206;48.020;21.378;2023-11-21T04:58:27;72.82;;;33.28;;
63112;SDS011;49206;48.020;21.378;2023-11-21T04:59:30;68.22;;;32.22;;
63112;SDS011;49206;48.020;21.378;2023-11-21T05:00:33;71.32;;;30.55;;
63112;SDS011;49206;48.020;21.378;2023-11-21T05:01:42;83.20;;;32.35;;
63112;SDS011;49206;48.020;21.378;2023-11-21T05:02:45;92.68;;;31.80;;
63112;SDS011;49206;48.020;21.378;2023-11-21T05:03:48;71.68;;;31.20;;
63112;SDS011;49206;48.020;21.378;2023-11-21T05:04:51;73.82;;;30.77;;
63112;SDS011;49206;48.020;21.378;2023-11-21T05:05:53;83.38;;;34.03;;
63112;SDS011;49206;48.020;21.378;2023-11-21T05:06:58;77.30;;;32.67;;
63112;SDS011;49206;48.020;21.378;2023-11-21T05:08:01;78.03;;;33.08;;
63112;SDS011;49206;48.020;21.378;2023-11-21T05:09:06;76.18;;;30.40;;
63112;SDS011;49206;48.020;21.378;2023-11-21T05:10:14;82.07;;;32.08;;
63112;SDS011;49206;48.020;21.378;2023-11-21T05:11:24;66.82;;;33.15;;
63112;SDS011;49206;48.020;21.378;2023-11-21T05:12:32;72.32;;;30.17;;
63112;SDS011;49206;48.020;21.378;2023-11-21T05:13:40;64.25;;;31.17;;
63112;SDS011;49206;48.020;21.378;2023-11-21T05:14:44;77.97;;;33.67;;
63112;SDS011;49206;48.020;21.378;2023-11-21T05:15:47;93.13;;;32.30;;
63112;SDS011;49206;48.020;21.378;2023-11-21T05:16:49;84.40;;;34.58;;
63112;SDS011;49206;48.020;21.378;2023-11-21T05:17:53;76.85;;;31.80;;
63112;SDS011;49206;48.020;21.378;2023-11-21T05:18:55;72.20;;;30.13;;
63112;SDS011;49206;48.020;21.378;2023-11-21T05:20:03;82.40;;;32.28;;
63112;SDS011;49206;48.020;21.378;2023-11-21T05:21:11;84.22;;;29.88;;
63112;SDS011;49206;48.020;21.378;2023-11-21T05:22:14;79.90;;;30.85;;
63112;SDS011;49206;48.020;21.378;2023-11-21T05:23:19;79.25;;;32.03;;
63112;SDS011;49206;48.020;21.378;2023-11-21T05:24:21;72.55;;;32.92;;
63112;SDS011;49206;48.020;21.378;2023-11-21T05:25:24;74.45;;;32.22;;
63112;SDS011;49206;48.020;21.378;2023-11-21T05:26:27;71.60;;;30.50;;
63112;SDS011;49206;48.020;21.378;2023-11-21T05:27:30;71.72;;;32.08;;
63112;SDS011;49206;48.020;21.378;2023-11-21T05:28:37;85.32;;;31.30;;
63112;SDS011;49206;48.020;21.378;2023-11-21T05:29:39;83.80;;;30.52;;
63112;SDS011;49206;48.020;21.378;2023-11-21T05:30:42;61.83;;;27.85;;
63112;SDS011;49206;48.020;21.378;2023-11-21T05:31:44;66.57;;;28.30;;
63112;SDS011;49206;48.020;21.378;2023-11-21T05:32:47;62.35;;;30.58;;
63112;SDS011;49206;48.020;21.378;2023-11-21T05:33:52;59.33;;;29.15;;
63112;SDS011;49206;48.020;21.378;2023-11-21T05:34:55;71.68;;;28.55;;
63112;SDS011;49206;48.020;21.378;2023-11-21T05:35:57;62.72;;;28.90;;
63112;SDS011;49206;48.020;21.378;2023-11-21T05:37:00;59.85;;;28.73;;
63112;SDS011;49206;48.020;21.378;2023-11-21T05:38:02;65.38;;;30.73;;
63112;SDS011;49206;48.020;21.378;2023-11-21T05:39:05;64.50;;;31.10;;
63112;SDS011;49206;48.020;21.378;2023-11-21T05:40:08;80.32;;;33.00;;
63112;SDS011;49206;48.020;21.378;2023-11-21T05:41:11;75.07;;;33.75;;
63112;SDS011;49206;48.020;21.378;2023-11-21T05:42:15;89.72;;;34.63;;
63112;SDS011;49206;48.020;21.378;2023-11-21T05:43:18;84.75;;;35.00;;
63112;SDS011;49206;48.020;21.378;2023-11-21T05:44:21;79.63;;;33.13;;
63112;SDS011;49206;48.020;21.378;2023-11-21T05:45:23;79.95;;;33.80;;
63112;SDS011;49206;48.020;21.378;2023-11-21T05:46:26;96.90;;;40.72;;
63112;SDS011;49206;48.020;21.378;2023-11-21T05:47:29;99.18;;;44.42;;
63112;SDS011;49206;48.020;21.378;2023-11-21T05:48:32;77.65;;;36.75;;
63112;SDS011;49206;48.020;21.378;2023-11-21T05:49:35;80.85;;;35.22;;
63112;SDS011;49206;48.020;21.378;2023-11-21T05:50:39;79.90;;;36.53;;
63112;SDS011;49206;48.020;21.378;2023-11-21T05:51:42;74.82;;;37.63;;
63112;SDS011;49206;48.020;21.378;2023-11-21T05:52:44;77.00;;;36.00;;
63112;SDS011;49206;48.020;21.378;2023-11-21T05:53:49;77.88;;;35.38;;
63112;SDS011;49206;48.020;21.378;2023-11-21T05:54:51;90.47;;;32.90;;
63112;SDS011;49206;48.020;21.378;2023-11-21T05:55:54;88.40;;;31.52;;
63112;SDS011;49206;48.020;21.378;2023-11-21T05:56:57;88.22;;;31.63;;
63112;SDS011;49206;48.020;21.378;2023-11-21T05:57:59;67.40;;;30.90;;
63112;SDS011;49206;48.020;21.378;2023-11-21T05:59:05;76.03;;;32.97;;
63112;SDS011;49206;48.020;21.378;2023-11-21T06:00:10;75.30;;;30.52;;
63112;SDS011;49206;48.020;21.378;2023-11-21T06:01:23;69.30;;;31.38;;
63112;SDS011;49206;48.020;21.378;2023-11-21T06:02:26;80.13;;;33.45;;
63112;SDS011;49206;48.020;21.378;2023-11-21T06:03:29;91.43;;;33.28;;
63112;SDS011;49206;48.020;21.378;2023-11-21T06:04:31;87.90;;;33.78;;
63112;SDS011;49206;48.020;21.378;2023-11-21T06:05:34;94.40;;;33.53;;
63112;SDS011;49206;48.020;21.378;2023-11-21T06:06:37;74.03;;;30.52;;